Time;durP1;ratioP1;P1;durP2;ratioP2;P2;SDS_P1;SDS_P2;PMS_P1;PMS_P2;Temp;Humidity;BMP_temperature;BMP_pressure;BME280_temperature;BME280_humidity;BME280_pressure;Samples;Min_cycle;Max_cycle;Signal;HPM_P1;HPM_P2
2022/03/23 00:02:09;;;;;;;0.00;0.00;;;8.00;99.90;;;;;;5050084;28;20059;-60
2022/03/23 00:04:35;;;;;;;0.00;0.00;;;7.90;99.90;;;;;;5045901;28;20044;-61
2022/03/23 00:07:00;;;;;;;0.00;0.00;;;8.50;99.90;;;;;;5043236;28;20041;-59
2022/03/23 00:09:27;;;;;;;0.00;0.00;;;7.90;99.90;;;;;;5042705;28;20423;-59
2022/03/23 00:11:53;;;;;;;0.00;0.00;;;7.90;99.90;;;;;;5040936;28;20076;-60
2022/03/23 00:14:18;;;;;;;0.00;0.00;;;7.80;99.90;;;;;;5042821;28;20100;-59
2022/03/23 00:16:44;;;;;;;0.00;0.00;;;7.70;99.90;;;;;;5042142;28;20417;-60
2022/03/23 00:19:10;;;;;;;0.00;0.00;;;7.70;99.90;;;;;;5042380;28;20055;-60
2022/03/23 00:21:37;;;;;;;0.00;0.00;;;7.60;99.90;;;;;;5041896;28;20056;-59
2022/03/23 00:24:03;;;;;;;0.00;0.00;;;7.70;99.90;;;;;;5042941;28;20580;-60
2022/03/23 00:26:29;;;;;;;0.00;0.00;;;7.70;99.90;;;;;;5041713;28;20041;-59
2022/03/23 00:28:55;;;;;;;0.00;0.00;;;7.60;99.90;;;;;;5041311;28;20044;-60
2022/03/23 00:31:22;;;;;;;0.00;0.00;;;7.60;99.90;;;;;;5042777;28;20999;-59
2022/03/23 00:33:49;;;;;;;0.00;0.00;;;8.70;99.90;;;;;;5041708;28;20092;-60
2022/03/23 00:36:15;;;;;;;0.00;0.00;;;8.20;99.90;;;;;;5042563;28;20531;-60
2022/03/23 00:38:42;;;;;;;0.00;0.00;;;7.60;99.90;;;;;;5041416;28;20048;-60
2022/03/23 00:41:08;;;;;;;0.00;0.00;;;7.60;99.90;;;;;;5041719;28;20448;-60
2022/03/23 00:43:35;;;;;;;0.03;0.03;;;7.60;99.90;;;;;;5042784;28;20080;-59
2022/03/23 00:46:01;;;;;;;0.00;0.00;;;7.70;99.90;;;;;;5041500;28;20045;-60
2022/03/23 00:48:27;;;;;;;0.10;0.10;;;7.60;99.90;;;;;;5042401;28;20041;-60
2022/03/23 00:50:53;;;;;;;0.00;0.00;;;7.60;99.90;;;;;;5041719;28;20033;-59
2022/03/23 00:53:19;;;;;;;0.00;0.00;;;7.60;99.90;;;;;;5042092;28;20075;-59
2022/03/23 00:55:45;;;;;;;0.00;0.00;;;7.80;99.90;;;;;;5040337;28;20480;-60
2022/03/23 00:58:11;;;;;;;0.00;0.00;;;7.60;99.90;;;;;;5042082;28;20419;-60
2022/03/23 01:00:36;;;;;;;0.00;0.00;;;7.50;99.90;;;;;;5041614;28;20499;-60
2022/03/23 01:03:04;;;;;;;0.00;0.00;;;7.50;99.90;;;;;;5035018;28;20045;-60
2022/03/23 01:05:30;;;;;;;0.00;0.00;;;8.50;99.90;;;;;;5041323;28;20052;-60
2022/03/23 01:07:56;;;;;;;0.00;0.00;;;7.50;99.90;;;;;;5041304;28;20041;-60
2022/03/23 01:10:21;;;;;;;0.00;0.00;;;7.50;99.90;;;;;;5041074;28;20060;-60
2022/03/23 01:12:48;;;;;;;0.00;0.00;;;7.50;99.90;;;;;;5040861;28;20079;-61
2022/03/23 01:15:16;;;;;;;0.00;0.00;;;7.70;99.90;;;;;;5041152;28;20059;-61
2022/03/23 01:17:42;;;;;;;0.00;0.00;;;7.60;99.90;;;;;;5041481;28;20049;-61
2022/03/23 01:20:11;;;;;;;0.00;0.00;;;7.50;99.90;;;;;;5041792;28;20052;-61
2022/03/23 01:22:37;;;;;;;0.00;0.00;;;7.50;99.90;;;;;;5041714;28;20037;-61
2022/03/23 01:25:05;;;;;;;0.00;0.00;;;7.60;99.90;;;;;;5041169;28;20051;-61
2022/03/23 01:27:31;;;;;;;0.00;0.00;;;7.60;99.90;;;;;;5042507;28;20834;-61
2022/03/23 01:29:57;;;;;;;0.20;0.20;;;7.50;99.90;;;;;;5040460;28;20384;-61
2022/03/23 01:32:22;;;;;;;0.00;0.00;;;7.80;99.90;;;;;;5041858;28;20052;-61
2022/03/23 01:34:48;;;;;;;0.00;0.00;;;7.60;99.90;;;;;;5040892;28;20526;-61
2022/03/23 01:37:14;;;;;;;0.00;0.00;;;7.60;99.90;;;;;;5041441;28;20037;-60
2022/03/23 01:39:40;;;;;;;0.00;0.00;;;7.50;99.90;;;;;;5041166;28;20087;-61
2022/03/23 01:42:06;;;;;;;0.10;0.10;;;7.50;99.90;;;;;;5040648;28;20037;-60
2022/03/23 01:44:32;;;;;;;0.00;0.00;;;7.50;99.90;;;;;;5041655;28;20072;-59
2022/03/23 01:47:17;;;;;;;0.00;0.00;;;7.50;99.90;;;;;;5040878;28;20434;-59
2022/03/23 01:49:47;;;;;;;0.00;0.00;;;7.40;99.90;;;;;;5041343;28;20177;-60
2022/03/23 01:52:18;;;;;;;0.00;0.00;;;7.50;99.90;;;;;;5041129;28;20044;-60
2022/03/23 01:54:44;;;;;;;0.88;0.15;;;7.30;99.90;;;;;;5040200;28;20510;-60
2022/03/23 01:57:12;;;;;;;0.00;0.00;;;7.30;99.90;;;;;;5041311;28;20033;-59
2022/03/23 01:59:38;;;;;;;0.00;0.00;;;7.30;99.90;;;;;;5040663;28;20053;-60
2022/03/23 02:02:05;;;;;;;0.00;0.00;;;7.40;99.90;;;;;;5048076;28;20127;-59
2022/03/23 02:04:30;;;;;;;0.00;0.00;;;7.20;99.90;;;;;;5045958;28;20049;-59
2022/03/23 02:06:56;;;;;;;0.00;0.00;;;7.20;99.90;;;;;;5040606;28;20045;-59
2022/03/23 02:09:24;;;;;;;0.10;0.10;;;7.10;99.90;;;;;;5040393;28;20057;-59
2022/03/23 02:11:50;;;;;;;0.00;0.00;;;7.10;99.90;;;;;;5040129;28;20561;-60
2022/03/23 02:14:16;;;;;;;0.00;0.00;;;7.10;99.90;;;;;;5041157;28;20052;-59
2022/03/23 02:16:45;;;;;;;0.00;0.00;;;7.10;99.90;;;;;;5040767;28;20099;-60
2022/03/23 02:19:12;;;;;;;0.00;0.00;;;7.10;99.90;;;;;;5041300;28;20396;-60
2022/03/23 02:21:41;;;;;;;0.00;0.00;;;7.00;99.90;;;;;;5040950;28;20044;-60
2022/03/23 02:24:07;;;;;;;0.00;0.00;;;7.00;99.90;;;;;;5023866;28;20067;-60
2022/03/23 02:26:33;;;;;;;0.00;0.00;;;7.00;99.90;;;;;;5025404;28;20442;-59
2022/03/23 02:29:02;;;;;;;0.00;0.00;;;7.00;99.90;;;;;;5044107;28;20096;-60
2022/03/23 02:31:27;;;;;;;0.00;0.00;;;7.00;99.90;;;;;;5044590;28;20041;-59
2022/03/23 02:33:53;;;;;;;0.10;0.10;;;7.40;99.90;;;;;;5043758;28;20048;-59
2022/03/23 02:36:19;;;;;;;0.00;0.00;;;6.90;99.90;;;;;;5044807;28;20094;-59
2022/03/23 02:38:45;;;;;;;0.00;0.00;;;6.90;99.90;;;;;;5043726;28;20666;-60
2022/03/23 02:41:11;;;;;;;0.00;0.00;;;6.90;99.90;;;;;;5044264;28;20051;-59
2022/03/23 02:43:36;;;;;;;0.00;0.00;;;6.80;99.90;;;;;;5043848;28;20044;-60
2022/03/23 02:46:02;;;;;;;0.00;0.00;;;6.80;99.90;;;;;;5044495;28;20428;-59
2022/03/23 02:48:28;;;;;;;0.00;0.00;;;6.80;99.90;;;;;;5044476;28;20037;-59
2022/03/23 02:50:54;;;;;;;0.00;0.00;;;6.70;99.90;;;;;;5043633;28;20055;-60
2022/03/23 03:02:17;;;;;;;0.00;0.00;;;6.50;99.90;;;;;;5047588;28;20664;-60
2022/03/23 03:04:43;;;;;;;0.00;0.00;;;6.40;99.90;;;;;;5042075;28;20053;-61
2022/03/23 03:07:09;;;;;;;0.00;0.00;;;6.40;99.90;;;;;;5043730;28;20044;-59
2022/03/23 03:09:34;;;;;;;0.22;0.22;;;6.30;99.90;;;;;;5043235;28;20045;-61
2022/03/23 03:12:01;;;;;;;0.00;0.00;;;6.30;99.90;;;;;;5044072;28;20083;-60
2022/03/23 03:14:27;;;;;;;0.00;0.00;;;6.30;99.90;;;;;;5043352;28;20048;-59
2022/03/23 03:16:53;;;;;;;0.00;0.00;;;6.40;99.90;;;;;;5043630;28;20120;-60
2022/03/23 03:19:20;;;;;;;0.00;0.00;;;6.30;99.90;;;;;;5043672;28;20496;-59
2022/03/23 03:21:45;;;;;;;0.00;0.00;;;6.30;99.90;;;;;;5043194;28;20064;-59
2022/03/23 03:24:11;;;;;;;0.00;0.00;;;6.30;99.90;;;;;;5025683;28;20538;-59
2022/03/23 03:26:37;;;;;;;0.00;0.00;;;6.30;99.90;;;;;;5042726;28;20040;-60
2022/03/23 03:29:04;;;;;;;0.00;0.00;;;6.20;99.90;;;;;;5043589;28;20044;-59
2022/03/23 03:31:30;;;;;;;0.00;0.00;;;6.20;99.90;;;;;;5043529;28;20465;-59
2022/03/23 03:33:57;;;;;;;0.00;0.00;;;6.20;99.90;;;;;;5043262;28;20597;-59
2022/03/23 03:36:23;;;;;;;0.00;0.00;;;6.20;99.90;;;;;;5043026;28;20044;-59
2022/03/23 03:38:48;;;;;;;0.00;0.00;;;6.10;99.90;;;;;;5043137;28;20526;-60
2022/03/23 03:41:14;;;;;;;0.00;0.00;;;6.50;99.90;;;;;;5042491;28;20552;-59
2022/03/23 03:43:40;;;;;;;0.00;0.00;;;6.00;99.90;;;;;;5042991;28;20607;-60
2022/03/23 03:46:06;;;;;;;0.00;0.00;;;6.00;99.90;;;;;;5043267;28;20484;-60
2022/03/23 03:48:33;;;;;;;0.00;0.00;;;6.00;99.90;;;;;;5044023;28;20414;-59
2022/03/23 03:50:59;;;;;;;0.00;0.00;;;6.40;99.90;;;;;;5042413;28;20096;-59
2022/03/23 03:53:24;;;;;;;0.00;0.00;;;6.00;99.90;;;;;;5043057;28;20064;-59
2022/03/23 03:55:50;;;;;;;0.00;0.00;;;6.00;99.90;;;;;;5042048;28;20045;-59
2022/03/23 03:58:17;;;;;;;0.00;0.00;;;6.00;99.90;;;;;;5042731;28;20728;-60
2022/03/23 04:00:44;;;;;;;0.00;0.00;;;6.00;99.90;;;;;;5043008;28;20096;-61
2022/03/23 04:03:09;;;;;;;0.00;0.00;;;6.00;99.90;;;;;;5032882;28;20053;-58
2022/03/23 04:05:35;;;;;;;0.00;0.00;;;5.90;99.90;;;;;;5042674;28;20044;-61
2022/03/23 04:08:02;;;;;;;0.00;0.00;;;5.90;99.90;;;;;;5024552;28;20523;-59
2022/03/23 04:10:28;;;;;;;0.00;0.00;;;5.90;99.90;;;;;;5041789;28;20053;-59
2022/03/23 04:12:54;;;;;;;0.00;0.00;;;5.90;99.90;;;;;;5042241;28;20052;-59
2022/03/23 04:15:21;;;;;;;0.00;0.00;;;5.90;99.90;;;;;;5041882;28;20036;-59
2022/03/23 04:17:47;;;;;;;0.00;0.00;;;5.90;99.90;;;;;;5042248;28;20503;-59
2022/03/23 04:20:13;;;;;;;0.00;0.00;;;5.90;99.90;;;;;;5042823;28;20040;-60
2022/03/23 04:22:39;;;;;;;0.00;0.00;;;5.90;99.90;;;;;;5042358;28;20637;-59
2022/03/23 04:25:10;;;;;;;0.00;0.00;;;6.00;99.90;;;;;;5041181;28;20170;-61
2022/03/23 04:27:50;;;;;;;0.00;0.00;;;5.90;99.90;;;;;;5042270;28;20449;-60
2022/03/23 04:30:18;;;;;;;0.00;0.00;;;5.80;99.90;;;;;;5024010;28;20056;-60
2022/03/23 04:32:49;;;;;;;0.00;0.00;;;5.80;99.90;;;;;;5042203;28;20460;-60
2022/03/23 04:35:15;;;;;;;0.00;0.00;;;5.80;99.90;;;;;;5042414;28;20052;-59
2022/03/23 04:37:41;;;;;;;0.00;0.00;;;5.80;99.90;;;;;;5023931;28;20052;-60
2022/03/23 04:40:08;;;;;;;0.00;0.00;;;5.70;99.90;;;;;;5041550;28;20082;-60
2022/03/23 04:42:35;;;;;;;0.00;0.00;;;5.70;99.90;;;;;;5042657;28;20045;-59
2022/03/23 04:45:01;;;;;;;0.00;0.00;;;5.70;99.90;;;;;;5042415;28;20127;-59
2022/03/23 04:47:26;;;;;;;0.47;0.35;;;5.70;99.90;;;;;;5041451;28;20084;-59
2022/03/23 04:49:52;;;;;;;0.00;0.00;;;5.60;99.90;;;;;;5040723;28;20085;-59
2022/03/23 04:52:18;;;;;;;0.00;0.00;;;5.60;99.90;;;;;;5042444;28;20071;-60
2022/03/23 04:54:44;;;;;;;0.00;0.00;;;5.50;99.90;;;;;;5040431;28;20407;-60
2022/03/23 04:57:10;;;;;;;0.00;0.00;;;5.60;99.90;;;;;;5041767;28;20090;-60
2022/03/23 04:59:36;;;;;;;0.00;0.00;;;5.60;99.90;;;;;;5042185;28;20044;-59
2022/03/23 05:02:01;;;;;;;0.00;0.00;;;5.70;99.90;;;;;;5027451;28;20715;-59
2022/03/23 05:04:27;;;;;;;0.00;0.00;;;5.50;99.90;;;;;;5041040;28;20511;-59
2022/03/23 05:06:53;;;;;;;0.00;0.00;;;5.50;99.90;;;;;;5024041;28;20080;-59
2022/03/23 05:09:18;;;;;;;0.00;0.00;;;5.50;99.90;;;;;;5040809;28;20763;-59
2022/03/23 05:11:44;;;;;;;0.00;0.00;;;5.50;99.90;;;;;;5041358;28;20124;-60
2022/03/23 05:14:10;;;;;;;0.00;0.00;;;6.60;99.90;;;;;;5041551;28;20500;-59
2022/03/23 05:16:36;;;;;;;0.00;0.00;;;5.50;99.90;;;;;;5041700;28;20083;-60
2022/03/23 05:19:02;;;;;;;0.00;0.00;;;5.50;99.90;;;;;;5041721;28;20465;-60
2022/03/23 05:21:28;;;;;;;0.00;0.00;;;5.40;99.90;;;;;;5041684;28;20081;-59
2022/03/23 05:23:53;;;;;;;0.00;0.00;;;5.80;99.90;;;;;;5023260;28;20049;-59
2022/03/23 05:26:19;;;;;;;0.00;0.00;;;5.50;99.90;;;;;;5022868;28;20377;-59
2022/03/23 05:28:44;;;;;;;0.00;0.00;;;5.40;99.90;;;;;;5040877;28;20055;-60
2022/03/23 05:31:10;;;;;;;0.00;0.00;;;5.40;99.90;;;;;;5040629;28;20547;-59
2022/03/23 05:33:36;;;;;;;0.00;0.00;;;5.50;99.90;;;;;;5041361;28;20057;-59
2022/03/23 05:36:02;;;;;;;0.00;0.00;;;5.40;99.90;;;;;;5041808;28;20404;-60
2022/03/23 05:38:28;;;;;;;0.00;0.00;;;5.40;99.90;;;;;;5007521;28;20123;-59
2022/03/23 05:40:54;;;;;;;0.00;0.00;;;5.40;99.90;;;;;;5039594;28;20409;-59
2022/03/23 05:43:19;;;;;;;0.00;0.00;;;5.40;99.90;;;;;;5041888;28;20049;-60
2022/03/23 05:45:45;;;;;;;0.00;0.00;;;5.30;99.90;;;;;;5041158;28;20053;-60
2022/03/23 05:48:11;;;;;;;0.00;0.00;;;5.30;99.90;;;;;;5040988;28;20467;-59
2022/03/23 05:50:37;;;;;;;0.00;0.00;;;5.50;99.90;;;;;;5041336;28;20065;-59
2022/03/23 05:53:03;;;;;;;0.00;0.00;;;5.40;99.90;;;;;;5041654;28;20090;-59
2022/03/23 05:55:29;;;;;;;0.00;0.00;;;5.40;99.90;;;;;;5040699;28;20045;-60
2022/03/23 05:57:55;;;;;;;0.00;0.00;;;6.30;99.90;;;;;;5022615;28;20111;-59
2022/03/23 06:00:21;;;;;;;0.00;0.00;;;5.40;99.90;;;;;;5043107;28;20363;-59
2022/03/23 06:02:47;;;;;;;0.00;0.00;;;5.50;99.90;;;;;;5055577;28;20651;-60
2022/03/23 06:05:13;;;;;;;0.00;0.00;;;5.50;99.90;;;;;;5045365;28;20391;-60
2022/03/23 06:07:39;;;;;;;0.00;0.00;;;5.60;99.90;;;;;;5044871;28;20076;-60
2022/03/23 06:10:08;;;;;;;0.00;0.00;;;5.70;99.90;;;;;;5026608;28;20083;-60
2022/03/23 06:12:34;;;;;;;0.00;0.00;;;5.70;99.90;;;;;;5045059;28;20056;-59
2022/03/23 06:14:59;;;;;;;0.00;0.00;;;5.70;99.90;;;;;;5044432;28;20071;-59
2022/03/23 06:17:25;;;;;;;0.00;0.00;;;5.80;99.90;;;;;;5044927;28;20037;-60
2022/03/23 06:19:51;;;;;;;0.00;0.00;;;5.90;99.90;;;;;;5044402;28;20117;-59
2022/03/23 06:22:16;;;;;;;0.00;0.00;;;5.90;99.90;;;;;;5044956;28;20087;-59
2022/03/23 06:24:42;;;;;;;0.00;0.00;;;6.20;99.90;;;;;;5043407;28;20119;-59
2022/03/23 06:27:08;;;;;;;0.00;0.00;;;6.10;99.90;;;;;;5044795;28;20049;-60
2022/03/23 06:29:34;;;;;;;0.00;0.00;;;6.20;99.90;;;;;;5045122;28;20041;-60
2022/03/23 06:31:59;;;;;;;0.00;0.00;;;6.20;99.90;;;;;;5025980;28;20048;-61
2022/03/23 06:34:25;;;;;;;0.00;0.00;;;6.30;99.90;;;;;;5010237;28;20041;-59
2022/03/23 06:36:50;;;;;;;0.00;0.00;;;6.30;99.90;;;;;;5044257;28;20037;-59
2022/03/23 06:39:16;;;;;;;0.00;0.00;;;6.50;99.90;;;;;;5043748;28;20096;-59
2022/03/23 06:41:42;;;;;;;0.00;0.00;;;7.00;99.90;;;;;;5025916;28;20555;-60
2022/03/23 06:44:07;;;;;;;0.00;0.00;;;6.50;99.90;;;;;;5044515;28;20037;-62
2022/03/23 06:46:33;;;;;;;0.00;0.00;;;7.40;99.90;;;;;;5044445;28;20542;-61
2022/03/23 06:48:59;;;;;;;0.00;0.00;;;6.60;99.90;;;;;;5044116;28;20136;-61
2022/03/23 06:51:25;;;;;;;0.00;0.00;;;6.60;99.90;;;;;;5044069;28;20053;-61
2022/03/23 06:53:50;;;;;;;0.00;0.00;;;6.70;99.90;;;;;;5043586;28;20049;-64
2022/03/23 06:56:16;;;;;;;0.00;0.00;;;6.80;99.90;;;;;;5044034;28;20055;-62
2022/03/23 06:58:42;;;;;;;0.00;0.00;;;6.90;99.90;;;;;;5043417;28;20123;-61
2022/03/23 07:01:07;;;;;;;0.00;0.00;;;6.90;99.90;;;;;;5046453;28;20420;-59
2022/03/23 07:03:33;;;;;;;0.00;0.00;;;7.00;99.90;;;;;;5039371;28;20043;-60
2022/03/23 07:05:59;;;;;;;0.00;0.00;;;7.10;99.90;;;;;;5043899;28;20430;-61
2022/03/23 07:11:08;;;;;;;0.00;0.00;;;7.50;99.90;;;;;;5027463;28;20668;-61
2022/03/23 07:13:34;;;;;;;0.00;0.00;;;7.40;99.90;;;;;;5043647;28;20059;-61
2022/03/23 07:16:00;;;;;;;0.03;0.03;;;7.40;99.90;;;;;;5025689;28;20036;-61
2022/03/23 07:18:27;;;;;;;0.00;0.00;;;7.50;99.90;;;;;;5043770;28;20059;-61
2022/03/23 07:20:53;;;;;;;0.00;0.00;;;7.60;99.90;;;;;;5025159;28;20045;-61
2022/03/23 07:23:18;;;;;;;0.00;0.00;;;7.70;99.90;;;;;;5025830;28;20067;-61
2022/03/23 07:25:44;;;;;;;0.00;0.00;;;7.70;99.90;;;;;;5042481;28;20091;-61
2022/03/23 07:28:10;;;;;;;0.00;0.00;;;7.80;99.90;;;;;;5025865;28;20575;-61
2022/03/23 07:30:37;;;;;;;0.00;0.00;;;7.90;99.90;;;;;;5025697;28;20124;-60
2022/03/23 07:33:03;;;;;;;0.00;0.00;;;8.00;99.90;;;;;;5043206;28;20155;-59
2022/03/23 07:35:29;;;;;;;0.00;0.00;;;8.00;99.90;;;;;;5043196;28;20044;-60
2022/03/23 07:37:56;;;;;;;0.00;0.00;;;8.20;99.90;;;;;;5042823;28;20573;-59
2022/03/23 07:40:21;;;;;;;0.00;0.00;;;8.30;99.90;;;;;;5042697;28;20107;-59
2022/03/23 07:42:47;;;;;;;0.00;0.00;;;8.40;99.90;;;;;;5042783;28;20049;-59
2022/03/23 07:45:14;;;;;;;0.00;0.00;;;8.40;99.90;;;;;;5043436;28;20472;-59
2022/03/23 07:47:40;;;;;;;0.75;0.10;;;8.80;99.90;;;;;;5049829;28;20040;-61
2022/03/23 07:50:07;;;;;;;0.00;0.00;;;8.60;99.90;;;;;;5045689;28;20099;-60
2022/03/23 07:52:33;;;;;;;0.00;0.00;;;8.70;99.90;;;;;;5025515;28;20087;-59
2022/03/23 07:55:02;;;;;;;0.00;0.00;;;8.80;99.90;;;;;;5042034;28;20041;-59
2022/03/23 07:57:28;;;;;;;0.00;0.00;;;8.90;99.90;;;;;;5042891;28;20106;-59
2022/03/23 07:59:57;;;;;;;0.00;0.00;;;8.90;99.90;;;;;;5042468;28;20066;-59
2022/03/23 08:02:24;;;;;;;0.00;0.00;;;10.10;99.90;;;;;;5052091;28;20055;-59
2022/03/23 08:04:50;;;;;;;0.00;0.00;;;9.10;99.90;;;;;;5044055;28;20060;-59
2022/03/23 08:07:16;;;;;;;0.00;0.00;;;9.20;99.90;;;;;;5042722;28;20036;-59
2022/03/23 08:09:42;;;;;;;0.00;0.00;;;9.30;99.90;;;;;;5041397;28;20514;-59
2022/03/23 08:12:07;;;;;;;0.00;0.00;;;9.30;99.90;;;;;;5025031;28;20041;-60
2022/03/23 08:14:33;;;;;;;0.00;0.00;;;9.50;99.90;;;;;;5024701;28;20041;-58
2022/03/23 08:16:59;;;;;;;0.00;0.00;;;9.50;99.90;;;;;;5045114;28;20049;-59
2022/03/23 08:19:24;;;;;;;0.00;0.00;;;9.60;99.90;;;;;;5042848;28;20056;-59
2022/03/23 08:21:51;;;;;;;0.00;0.00;;;9.70;99.90;;;;;;5042417;28;20048;-59
2022/03/23 08:24:17;;;;;;;0.00;0.00;;;9.80;99.90;;;;;;5041088;28;20467;-59
2022/03/23 08:26:43;;;;;;;0.00;0.00;;;9.90;99.90;;;;;;5041809;28;20135;-62
2022/03/23 08:29:09;;;;;;;0.00;0.00;;;10.00;99.90;;;;;;5051032;28;20131;-59
2022/03/23 08:31:35;;;;;;;0.00;0.00;;;10.10;99.90;;;;;;5062028;28;20040;-62
2022/03/23 08:34:01;;;;;;;0.00;0.00;;;10.20;99.90;;;;;;5061975;28;20041;-59
2022/03/23 08:36:27;;;;;;;0.00;0.00;;;10.30;99.90;;;;;;5062521;28;20086;-59
2022/03/23 08:38:53;;;;;;;0.00;0.00;;;10.50;99.90;;;;;;5061272;28;20087;-58
2022/03/23 08:41:18;;;;;;;0.00;0.00;;;10.60;99.90;;;;;;5061701;28;20052;-60
2022/03/23 08:43:44;;;;;;;0.00;0.00;;;10.70;99.90;;;;;;5061944;28;20820;-60
2022/03/23 08:46:13;;;;;;;0.00;0.00;;;10.90;99.90;;;;;;5062417;28;20040;-59
2022/03/23 08:48:39;;;;;;;0.00;0.00;;;11.00;99.90;;;;;;5043827;28;20128;-61
2022/03/23 08:51:05;;;;;;;0.00;0.00;;;10.60;99.90;;;;;;5061778;28;20056;-60
2022/03/23 08:53:31;;;;;;;0.00;0.00;;;11.40;99.90;;;;;;5062418;28;20081;-59
2022/03/23 08:55:57;;;;;;;0.00;0.00;;;11.80;99.90;;;;;;5051657;28;20033;-58
2022/03/23 08:58:23;;;;;;;0.00;0.00;;;11.80;99.90;;;;;;5032989;28;20491;-58
2022/03/23 09:00:49;;;;;;;0.00;0.00;;;12.00;99.90;;;;;;5051107;28;20123;-58
2022/03/23 09:03:15;;;;;;;0.00;0.00;;;12.10;99.90;;;;;;5057979;28;20150;-59
2022/03/23 09:05:41;;;;;;;0.00;0.00;;;12.40;99.90;;;;;;5050597;28;20068;-58
2022/03/23 09:08:08;;;;;;;0.00;0.00;;;12.50;99.90;;;;;;5061191;28;20122;-58
2022/03/23 09:10:34;;;;;;;0.00;0.00;;;12.70;99.90;;;;;;5061605;28;20139;-58
2022/03/23 09:13:00;;;;;;;0.00;0.00;;;13.20;99.90;;;;;;5061986;28;20202;-59
2022/03/23 09:15:26;;;;;;;0.00;0.00;;;14.00;99.90;;;;;;5043283;28;20047;-59
2022/03/23 09:17:58;;;;;;;0.00;0.00;;;14.80;99.90;;;;;;5061510;28;20089;-58
2022/03/23 09:20:25;;;;;;;0.00;0.00;;;15.50;99.90;;;;;;5061724;28;20228;-59
2022/03/23 09:22:52;;;;;;;0.00;0.00;;;16.00;99.90;;;;;;5061111;28;20056;-59
2022/03/23 09:25:19;;;;;;;0.00;0.00;;;16.50;99.90;;;;;;5061075;28;20055;-59
2022/03/23 09:27:44;;;;;;;0.00;0.00;;;16.90;99.90;;;;;;5061286;28;20037;-58
2022/03/23 09:30:13;;;;;;;0.00;0.00;;;17.00;99.90;;;;;;5061539;28;20040;-59
2022/03/23 09:32:39;;;;;;;0.20;0.20;;;17.50;99.90;;;;;;5048315;28;20425;-61
2022/03/23 09:35:06;;;;;;;0.00;0.00;;;17.80;99.90;;;;;;5050467;28;20719;-59
2022/03/23 09:37:50;;;;;;;0.00;0.00;;;18.00;99.90;;;;;;5047762;28;20135;-58
2022/03/23 09:40:32;;;;;;;0.00;0.00;;;18.20;99.90;;;;;;5049115;28;20127;-58
2022/03/23 09:42:58;;;;;;;0.00;0.00;;;18.30;99.90;;;;;;5065142;28;20048;-60
2022/03/23 09:45:58;;;;;;;0.00;0.00;;;18.40;99.90;;;;;;5065140;28;20115;-59
2022/03/23 09:48:21;;;;;;;0.00;0.00;;;18.40;99.90;;;;;;5062377;28;20128;-58
2022/03/23 09:50:50;;;;;;;0.00;0.00;;;18.30;99.90;;;;;;5062946;28;20098;-59
2022/03/23 09:53:17;;;;;;;0.00;0.00;;;18.60;99.90;;;;;;5045507;28;20095;-68
2022/03/23 09:55:43;;;;;;;0.00;0.00;;;18.80;99.90;;;;;;5044241;28;20052;-64
2022/03/23 09:58:10;;;;;;;0.00;0.00;;;18.90;99.90;;;;;;5045374;28;20056;-65
2022/03/23 10:00:41;;;;;;;0.00;0.00;;;18.80;99.90;;;;;;5045021;28;20045;-64
2022/03/23 10:03:09;;;;;;;0.10;0.10;;;19.00;99.30;;;;;;5055661;28;20075;-64
2022/03/23 10:06:12;;;;;;;0.00;0.00;;;18.90;97.70;;;;;;5065052;28;20070;-64
2022/03/23 10:09:00;;;;;;;0.00;0.00;;;19.00;98.90;;;;;;5064094;28;20580;-64
2022/03/23 10:11:37;;;;;;;0.00;0.00;;;19.00;95.70;;;;;;5064971;28;20041;-65
2022/03/23 10:14:32;;;;;;;0.00;0.00;;;18.60;95.50;;;;;;5065164;28;20052;-64
2022/03/23 10:17:35;;;;;;;0.00;0.00;;;18.50;94.60;;;;;;5064572;28;20060;-64
2022/03/23 10:20:02;;;;;;;0.00;0.00;;;18.30;93.40;;;;;;5065254;28;20392;-64
2022/03/23 10:22:28;;;;;;;0.00;0.00;;;18.40;92.90;;;;;;5030265;28;20048;-64
2022/03/23 10:24:56;;;;;;;0.10;0.10;;;18.60;93.90;;;;;;5062950;28;20080;-63
2022/03/23 10:27:24;;;;;;;0.10;0.10;;;18.60;93.20;;;;;;5064678;28;20044;-64
2022/03/23 10:29:52;;;;;;;0.00;0.00;;;18.70;91.50;;;;;;5064498;28;20128;-64
2022/03/23 10:32:21;;;;;;;0.00;0.00;;;19.10;92.10;;;;;;5065104;28;20450;-64
2022/03/23 10:34:51;;;;;;;0.10;0.10;;;19.00;91.90;;;;;;5064043;28;20048;-64
2022/03/23 10:37:31;;;;;;;0.10;0.10;;;19.00;91.00;;;;;;5047071;28;20087;-64
2022/03/23 10:40:12;;;;;;;0.00;0.00;;;19.10;92.00;;;;;;5062694;28;20049;-64
2022/03/23 10:42:42;;;;;;;0.00;0.00;;;18.90;91.80;;;;;;5064546;28;20036;-64
2022/03/23 10:45:16;;;;;;;0.32;0.05;;;19.10;90.10;;;;;;5064374;28;20174;-64
2022/03/23 10:47:42;;;;;;;0.00;0.00;;;19.20;90.90;;;;;;5062697;28;20250;-63
2022/03/23 10:50:24;;;;;;;0.13;0.13;;;19.30;91.60;;;;;;5064259;28;20079;-64
2022/03/23 10:52:55;;;;;;;0.15;0.15;;;19.60;90.60;;;;;;5063284;28;20049;-65
2022/03/23 10:55:24;;;;;;;0.20;0.00;;;19.70;90.00;;;;;;5063854;28;20093;-64
2022/03/23 10:58:02;;;;;;;0.05;0.00;;;19.50;89.30;;;;;;5064098;28;20076;-64
2022/03/23 11:00:34;;;;;;;0.00;0.00;;;19.70;90.40;;;;;;5064105;28;20059;-64
2022/03/23 11:03:01;;;;;;;0.32;0.32;;;20.00;91.00;;;;;;5025678;28;20041;-65
2022/03/23 11:05:34;;;;;;;0.00;0.00;;;20.20;89.70;;;;;;5043885;28;20916;-64
2022/03/23 11:08:09;;;;;;;0.00;0.00;;;20.30;88.30;;;;;;5042954;28;20053;-64
2022/03/23 11:16:29;;;;;;;0.00;0.00;;;19.80;83.60;;;;;;5043515;28;20258;-64
2022/03/23 11:19:10;;;;;;;0.63;0.50;;;20.00;82.50;;;;;;5043662;28;20408;-64
2022/03/23 11:22:11;;;;;;;0.22;0.10;;;19.70;78.50;;;;;;5042733;28;20140;-64
2022/03/23 11:24:40;;;;;;;0.00;0.00;;;19.90;79.70;;;;;;4999988;28;20061;-64
2022/03/23 11:27:11;;;;;;;0.00;0.00;;;20.20;86.30;;;;;;5043249;28;20053;-64
2022/03/23 11:29:39;;;;;;;0.20;0.17;;;19.90;77.90;;;;;;5043207;28;20046;-64
2022/03/23 11:32:13;;;;;;;0.05;0.05;;;19.60;77.60;;;;;;5043720;28;20060;-64
2022/03/23 11:34:40;;;;;;;0.43;0.10;;;19.80;78.30;;;;;;5025236;28;20041;-64
2022/03/23 11:37:07;;;;;;;0.00;0.00;;;20.20;81.70;;;;;;5043524;28;20045;-64
2022/03/23 11:39:37;;;;;;;0.10;0.10;;;20.30;79.30;;;;;;5046336;28;20408;-64
2022/03/23 11:42:05;;;;;;;0.10;0.10;;;20.00;78.50;;;;;;5052780;28;20052;-64
2022/03/23 11:44:30;;;;;;;0.10;0.10;;;20.30;78.90;;;;;;5041012;28;20052;-65
2022/03/23 11:47:36;;;;;;;0.00;0.00;;;20.30;77.60;;;;;;5044889;28;20048;-64
2022/03/23 11:50:17;;;;;;;0.30;0.10;;;20.30;77.60;;;;;;5020694;28;20123;-63
2022/03/23 11:52:53;;;;;;;0.00;0.00;;;20.50;80.10;;;;;;5043467;28;20059;-64
2022/03/23 11:55:51;;;;;;;0.00;0.00;;;20.30;79.10;;;;;;5062603;28;20040;-64
2022/03/23 11:58:21;;;;;;;0.00;0.00;;;20.30;80.50;;;;;;5041822;28;20346;-64
2022/03/23 12:01:09;;;;;;;0.03;0.00;;;20.60;81.80;;;;;;5051879;28;20083;-64
2022/03/23 12:03:40;;;;;;;0.00;0.00;;;20.90;81.90;;;;;;5062979;28;20048;-64
2022/03/23 12:06:13;;;;;;;0.00;0.00;;;20.50;78.50;;;;;;5062721;28;20821;-65
2022/03/23 12:08:54;;;;;;;0.00;0.00;;;20.80;78.60;;;;;;5043329;28;20052;-64
2022/03/23 12:11:44;;;;;;;0.00;0.00;;;20.80;79.10;;;;;;5063020;28;20183;-65
2022/03/23 12:14:28;;;;;;;0.00;0.00;;;20.70;77.60;;;;;;5062579;28;20048;-65
2022/03/23 12:16:55;;;;;;;0.00;0.00;;;21.00;77.70;;;;;;5044448;28;20064;-64
2022/03/23 12:19:32;;;;;;;0.00;0.00;;;21.00;80.80;;;;;;5062754;28;20048;-64
2022/03/23 12:22:14;;;;;;;0.00;0.00;;;20.80;80.50;;;;;;5044382;28;20055;-64
2022/03/23 12:24:58;;;;;;;0.00;0.00;;;20.60;76.60;;;;;;5026768;28;20376;-63
2022/03/23 12:27:45;;;;;;;0.00;0.00;;;20.70;80.20;;;;;;5062243;28;20080;-63
2022/03/23 12:30:16;;;;;;;0.00;0.00;;;20.80;81.30;;;;;;5061782;28;20044;-64
2022/03/23 12:32:42;;;;;;;0.00;0.00;;;20.70;78.60;;;;;;5053354;28;20462;-63
2022/03/23 12:35:08;;;;;;;0.00;0.00;;;20.60;79.10;;;;;;5056724;28;20048;-63
2022/03/23 12:37:43;;;;;;;0.00;0.00;;;20.60;76.70;;;;;;5061914;28;20614;-64
2022/03/23 12:40:11;;;;;;;0.00;0.00;;;20.60;80.80;;;;;;5059209;28;20498;-65
2022/03/23 12:42:44;;;;;;;0.00;0.00;;;20.40;77.20;;;;;;5061448;28;20041;-64
2022/03/23 12:45:19;;;;;;;0.00;0.00;;;20.20;76.20;;;;;;5061786;28;20052;-64
2022/03/23 12:47:50;;;;;;;0.00;0.00;;;20.40;79.70;;;;;;5043378;28;20047;-64
2022/03/23 12:58:35;;;;;;;0.00;0.00;;;20.60;81.10;;;;;;5044683;28;20087;-64
2022/03/23 13:01:19;;;;;;;0.10;0.10;;;20.80;79.60;;;;;;5043836;28;20078;-64
2022/03/23 13:03:45;;;;;;;0.00;0.00;;;20.80;81.80;;;;;;5041027;28;20044;-64
2022/03/23 13:06:13;;;;;;;0.00;0.00;;;20.80;83.50;;;;;;5041542;28;20041;-64
2022/03/23 13:08:50;;;;;;;0.00;0.00;;;20.60;80.80;;;;;;5040212;28;20451;-63
2022/03/23 13:11:26;;;;;;;1.17;0.38;;;20.00;75.80;;;;;;5040770;28;20127;-65
2022/03/23 13:13:54;;;;;;;0.00;0.00;;;20.10;77.40;;;;;;5040542;28;20052;-63
2022/03/23 13:16:23;;;;;;;0.00;0.00;;;20.30;79.30;;;;;;5023858;28;20037;-64
2022/03/23 13:18:49;;;;;;;0.00;0.00;;;20.40;82.20;;;;;;5041105;28;20496;-65
2022/03/23 13:21:18;;;;;;;0.00;0.00;;;20.40;77.80;;;;;;5023882;28;20056;-65
2022/03/23 13:23:47;;;;;;;0.47;0.20;;;20.10;77.00;;;;;;5040390;28;20211;-64
2022/03/23 13:26:18;;;;;;;0.00;0.00;;;20.10;79.10;;;;;;5043939;28;20048;-64